createdAt,value
2023-04-17T00:00:22.143Z,23.53
2023-04-17T00:02:48.662Z,22.87
2023-04-17T00:05:16.880Z,23.40
2023-04-17T00:07:43.710Z,23.10
2023-04-17T00:10:11.607Z,23.03
2023-04-17T00:12:38.444Z,25.23
2023-04-17T00:15:05.633Z,24.00
2023-04-17T00:17:32.178Z,23.67
2023-04-17T00:19:58.710Z,25.40
2023-04-17T00:22:25.331Z,24.67
2023-04-17T00:24:51.777Z,25.70
2023-04-17T00:27:18.256Z,26.40
2023-04-17T00:29:44.686Z,26.23
2023-04-17T00:32:11.348Z,26.67
2023-04-17T00:34:38.137Z,25.47
2023-04-17T00:37:04.610Z,25.90
2023-04-17T00:39:31.293Z,26.03
2023-04-17T00:41:58.546Z,24.67
2023-04-17T00:44:25.142Z,25.33
2023-04-17T00:46:51.651Z,23.93
2023-04-17T00:49:18.295Z,25.47
2023-04-17T00:51:44.787Z,24.90
2023-04-17T00:54:11.476Z,25.07
2023-04-17T00:56:38.262Z,26.67
2023-04-17T00:59:06.495Z,26.37
2023-04-17T01:01:32.976Z,27.03
2023-04-17T01:04:01.825Z,25.60
2023-04-17T01:06:28.645Z,27.83
2023-04-17T01:09:01.441Z,27.30
2023-04-17T01:11:28.344Z,24.83
2023-04-17T01:13:54.915Z,24.90
2023-04-17T01:16:21.481Z,26.97
2023-04-17T01:18:51.340Z,26.50
2023-04-17T01:21:17.977Z,25.57
2023-04-17T01:23:52.789Z,24.80
2023-04-17T01:26:21.378Z,26.67
2023-04-17T01:29:06.965Z,28.23
2023-04-17T01:31:33.536Z,30.57
2023-04-17T01:34:00.583Z,30.70
2023-04-17T01:36:27.673Z,30.87
2023-04-17T01:38:54.140Z,31.43
2023-04-17T01:41:20.601Z,31.07
2023-04-17T01:43:47.659Z,29.43
2023-04-17T01:46:14.356Z,29.20
2023-04-17T01:48:40.986Z,30.60
2023-04-17T01:51:07.544Z,27.53
2023-04-17T01:53:34.339Z,28.20
2023-04-17T01:56:01.876Z,29.57
2023-04-17T01:58:28.624Z,32.17
2023-04-17T02:00:55.104Z,28.50
2023-04-17T02:03:22.909Z,27.70
2023-04-17T02:05:49.910Z,26.87
2023-04-17T02:08:16.747Z,26.57
2023-04-17T02:10:43.501Z,28.60
2023-04-17T02:13:10.769Z,31.07
2023-04-17T02:15:37.548Z,30.07
2023-04-17T02:18:06.266Z,27.53
2023-04-17T02:20:33.598Z,30.50
2023-04-17T02:23:00.981Z,30.27
2023-04-17T02:25:27.963Z,32.50
2023-04-17T02:27:54.895Z,32.73
2023-04-17T02:30:21.548Z,32.73
2023-04-17T02:32:49.856Z,31.67
2023-04-17T02:35:16.355Z,32.93
2023-04-17T02:37:42.849Z,32.97
2023-04-17T02:40:10.387Z,30.43
2023-04-17T02:42:36.910Z,30.67
2023-04-17T02:45:04.537Z,28.70
2023-04-17T02:47:31.101Z,32.43
2023-04-17T02:50:00.110Z,29.10
2023-04-17T02:52:31.080Z,32.27
2023-04-17T02:54:57.601Z,30.20
2023-04-17T02:57:24.536Z,30.10
2023-04-17T02:59:51.722Z,30.83
2023-04-17T03:02:22.211Z,30.37
2023-04-17T03:04:50.352Z,29.37
2023-04-17T03:07:18.797Z,30.10
2023-04-17T03:09:48.612Z,29.87
2023-04-17T03:12:15.905Z,28.43
2023-04-17T03:14:43.428Z,29.70
2023-04-17T03:17:10.944Z,27.57
2023-04-17T03:19:37.855Z,29.40
2023-04-17T03:22:04.582Z,27.53
2023-04-17T03:24:31.573Z,26.97
2023-04-17T03:26:58.687Z,26.80
2023-04-17T03:29:25.316Z,28.40
2023-04-17T03:31:51.881Z,29.33
2023-04-17T03:34:18.795Z,27.63
2023-04-17T03:36:45.340Z,28.13
2023-04-17T03:39:12.132Z,29.90
2023-04-17T03:41:38.899Z,29.33
2023-04-17T03:44:05.803Z,26.70
2023-04-17T03:46:32.290Z,27.53
2023-04-17T03:51:40.077Z,27.70
2023-04-17T03:54:06.584Z,26.10
2023-04-17T03:56:33.100Z,24.47
2023-04-17T03:58:59.790Z,28.13
2023-04-17T04:01:28.425Z,30.27
2023-04-17T04:03:55.547Z,31.37
2023-04-17T04:06:22.475Z,30.30
2023-04-17T04:08:49.540Z,29.33
2023-04-17T04:11:16.298Z,30.67
2023-04-17T04:13:42.746Z,28.47
2023-04-17T04:16:09.338Z,29.77
2023-04-17T04:18:36.975Z,30.17
2023-04-17T04:21:03.684Z,29.53
2023-04-17T04:23:30.618Z,27.17
2023-04-17T04:25:58.021Z,27.60
2023-04-17T04:28:24.593Z,28.13
2023-04-17T04:30:53.596Z,26.67
2023-04-17T04:33:20.920Z,26.13
2023-04-17T04:35:48.361Z,26.33
2023-04-17T04:38:15.541Z,26.67
2023-04-17T04:40:43.807Z,25.40
2023-04-17T04:43:10.544Z,27.27
2023-04-17T04:45:37.170Z,24.23
2023-04-17T04:48:03.806Z,25.83
2023-04-17T04:50:30.948Z,24.63
2023-04-17T04:52:57.440Z,24.77
2023-04-17T04:55:24.554Z,25.60
2023-04-17T04:57:53.449Z,23.53
2023-04-17T05:00:20.497Z,23.20
2023-04-17T05:02:47.197Z,24.07
2023-04-17T05:05:13.736Z,23.87
2023-04-17T05:07:40.351Z,22.13
2023-04-17T05:10:07.370Z,23.07
2023-04-17T05:12:35.146Z,22.70
2023-04-17T05:15:01.653Z,24.10
2023-04-17T05:17:28.152Z,23.10
2023-04-17T05:19:54.646Z,22.77
2023-04-17T05:22:21.671Z,22.13
2023-04-17T05:24:48.193Z,21.40
2023-04-17T05:27:14.631Z,22.53
2023-04-17T05:29:41.106Z,21.30
2023-04-17T05:32:07.768Z,20.20
2023-04-17T05:34:34.408Z,22.27
2023-04-17T05:37:00.844Z,21.03
2023-04-17T05:39:28.383Z,20.93
2023-04-17T05:41:54.820Z,19.67
2023-04-17T05:44:21.291Z,20.17
2023-04-17T05:46:48.019Z,19.30
2023-04-17T05:49:14.539Z,19.10
2023-04-17T05:51:41.001Z,18.07
2023-04-17T05:54:07.497Z,18.53
2023-04-17T05:56:34.115Z,17.47
2023-04-17T05:59:00.887Z,17.20
2023-04-17T06:01:29.983Z,17.07
2023-04-17T06:03:57.171Z,16.07
2023-04-17T06:06:23.871Z,16.43
2023-04-17T06:08:52.451Z,15.67
2023-04-17T06:11:18.959Z,14.83
2023-04-17T06:13:45.453Z,14.00
2023-04-17T06:16:11.929Z,14.10
2023-04-17T06:18:38.681Z,14.43
2023-04-17T06:21:05.179Z,13.87
2023-04-17T06:23:31.675Z,14.50
2023-04-17T06:25:59.277Z,14.37
2023-04-17T06:28:25.762Z,13.27
2023-04-17T06:30:52.310Z,12.93
2023-04-17T06:33:18.796Z,13.57
2023-04-17T06:35:45.218Z,13.70
2023-04-17T06:38:11.717Z,13.07
2023-04-17T06:40:38.569Z,13.07
2023-04-17T06:43:05.112Z,12.77
2023-04-17T06:45:33.381Z,13.63
2023-04-17T06:47:59.881Z,13.67
2023-04-17T06:50:26.488Z,13.50
2023-04-17T06:52:52.986Z,12.70
2023-04-17T06:55:19.432Z,13.37
2023-04-17T06:57:46.182Z,11.87
2023-04-17T07:00:13.311Z,11.67
2023-04-17T07:02:39.807Z,13.00
2023-04-17T07:05:07.205Z,12.33
2023-04-17T07:07:35.583Z,11.80
2023-04-17T07:10:03.739Z,11.63
2023-04-17T07:12:30.461Z,11.03
2023-04-17T07:14:57.005Z,12.37
2023-04-17T07:17:23.619Z,12.63
2023-04-17T07:19:50.150Z,12.03
2023-04-17T07:22:16.634Z,11.67
2023-04-17T07:24:43.111Z,12.40
2023-04-17T07:27:09.907Z,12.27
2023-04-17T07:29:36.519Z,11.27
2023-04-17T07:32:03.948Z,12.03
2023-04-17T07:34:31.799Z,11.77
2023-04-17T07:36:58.245Z,11.60
2023-04-17T07:39:26.919Z,11.70
2023-04-17T07:41:53.378Z,12.57
2023-04-17T07:44:19.896Z,12.70
2023-04-17T07:46:46.431Z,12.53
2023-04-17T07:49:13.253Z,11.47
2023-04-17T07:51:41.256Z,11.57
2023-04-17T07:54:08.039Z,11.27
2023-04-17T07:56:35.029Z,11.30
2023-04-17T07:59:02.525Z,11.17
2023-04-17T08:01:28.978Z,10.93
2023-04-17T08:03:55.798Z,9.87
2023-04-17T08:06:22.427Z,10.73
2023-04-17T08:08:48.955Z,10.00
2023-04-17T08:11:15.545Z,11.33
2023-04-17T08:13:42.202Z,9.40
2023-04-17T08:16:09.104Z,10.00
2023-04-17T08:18:37.693Z,8.90
2023-04-17T08:21:04.554Z,9.17
2023-04-17T08:23:31.401Z,10.07
2023-04-17T08:25:58.373Z,10.50
2023-04-17T08:28:25.170Z,10.13
2023-04-17T08:30:51.884Z,9.90
2023-04-17T08:33:18.757Z,9.77
2023-04-17T08:35:45.428Z,9.40
2023-04-17T08:38:14.169Z,10.00
2023-04-17T08:40:43.097Z,9.67
2023-04-17T08:43:15.156Z,10.10
2023-04-17T08:45:54.061Z,9.73
2023-04-17T08:48:21.863Z,9.00
2023-04-17T08:50:51.409Z,9.70
2023-04-17T08:53:19.025Z,9.47
2023-04-17T08:55:46.827Z,9.03
2023-04-17T08:58:14.590Z,8.40
2023-04-17T09:00:42.620Z,9.33
2023-04-17T09:03:13.931Z,9.87
2023-04-17T09:05:43.569Z,8.83
2023-04-17T09:08:17.511Z,9.07
2023-04-17T09:10:46.034Z,8.63
2023-04-17T09:13:18.101Z,8.47
2023-04-17T09:15:45.900Z,8.67
2023-04-17T09:18:31.009Z,9.80
2023-04-17T09:20:59.776Z,9.60
2023-04-17T09:23:30.751Z,9.63
2023-04-17T09:26:09.397Z,9.17
2023-04-17T09:28:36.852Z,8.87
2023-04-17T09:31:24.294Z,9.27
2023-04-17T09:33:58.962Z,10.07
2023-04-17T09:36:27.453Z,9.10
2023-04-17T09:38:54.450Z,9.23
2023-04-17T09:41:25.363Z,8.70
2023-04-17T09:43:55.008Z,9.57
2023-04-17T09:46:46.025Z,9.20
2023-04-17T09:49:15.769Z,9.50
2023-04-17T09:51:42.730Z,9.13
2023-04-17T09:54:11.628Z,10.60
2023-04-17T09:56:38.900Z,9.63
2023-04-17T09:59:06.210Z,11.67
2023-04-17T10:01:33.947Z,12.50
2023-04-17T10:04:01.748Z,12.90
2023-04-17T10:06:29.108Z,12.87
2023-04-17T10:08:56.026Z,13.37
2023-04-17T10:11:24.830Z,12.57
2023-04-17T10:14:13.567Z,13.63
2023-04-17T10:16:43.609Z,13.17
2023-04-17T10:19:30.921Z,14.17
2023-04-17T10:22:15.758Z,15.17
2023-04-17T10:24:43.177Z,14.00
2023-04-17T10:27:25.630Z,13.57
2023-04-17T10:29:56.527Z,12.20
2023-04-17T10:32:28.958Z,11.57
2023-04-17T10:35:04.943Z,11.30
2023-04-17T10:37:46.959Z,9.30
2023-04-17T10:40:20.787Z,9.30
2023-04-17T10:43:06.593Z,8.50
2023-04-17T10:45:51.708Z,8.00
2023-04-17T10:48:36.727Z,7.47
2023-04-17T10:51:21.940Z,6.93
2023-04-17T10:53:50.411Z,7.27
2023-04-17T10:56:46.300Z,6.20
2023-04-17T10:59:20.732Z,6.70
2023-04-17T11:01:50.881Z,6.73
2023-04-17T11:04:25.389Z,6.00
2023-04-17T11:06:55.759Z,5.77
2023-04-17T11:09:24.035Z,5.70
2023-04-17T11:11:50.990Z,5.70
2023-04-17T11:14:22.808Z,6.63
2023-04-17T11:16:51.148Z,6.33
2023-04-17T11:19:23.273Z,7.17
2023-04-17T11:21:52.338Z,6.63
2023-04-17T11:24:32.104Z,6.43
2023-04-17T11:27:00.752Z,6.03
2023-04-17T11:29:28.115Z,5.83
2023-04-17T11:31:56.413Z,6.77
2023-04-17T11:34:23.247Z,6.03
2023-04-17T11:36:58.096Z,6.17
2023-04-17T11:39:26.764Z,5.97
2023-04-17T11:41:53.433Z,6.00
2023-04-17T11:44:21.152Z,5.53
2023-04-17T11:46:54.439Z,5.80
2023-04-17T11:49:31.502Z,6.10
2023-04-17T11:52:01.980Z,7.10
2023-04-17T11:54:40.153Z,6.07
2023-04-17T11:57:13.975Z,6.40
2023-04-17T11:59:45.583Z,6.37
2023-04-17T12:02:12.501Z,6.47
2023-04-17T12:04:39.967Z,7.03
2023-04-17T12:07:07.695Z,7.03
2023-04-17T12:09:34.948Z,6.50
2023-04-17T12:12:04.609Z,6.60
2023-04-17T12:14:31.596Z,6.97
2023-04-17T12:16:59.267Z,7.50
2023-04-17T12:19:28.037Z,6.27
2023-04-17T12:21:55.152Z,7.23
2023-04-17T12:24:24.881Z,5.83
2023-04-17T12:26:52.459Z,6.93
2023-04-17T12:29:26.479Z,7.20
2023-04-17T12:32:03.192Z,6.97
2023-04-17T12:34:29.787Z,7.20
2023-04-17T12:36:56.247Z,6.37
2023-04-17T12:39:23.031Z,6.80
2023-04-17T12:41:49.524Z,6.07
2023-04-17T12:44:15.989Z,6.90
2023-04-17T12:46:42.499Z,7.47
2023-04-17T12:49:09.058Z,6.87
2023-04-17T12:51:37.975Z,6.20
2023-04-17T12:54:04.736Z,6.97
2023-04-17T12:56:31.207Z,6.70
2023-04-17T12:58:57.993Z,7.20
2023-04-17T13:01:25.961Z,7.10
2023-04-17T13:03:52.830Z,6.80
2023-04-17T13:06:21.561Z,6.63
2023-04-17T13:08:48.093Z,6.90
2023-04-17T13:11:14.535Z,6.60
2023-04-17T13:13:41.004Z,6.60
2023-04-17T13:16:07.630Z,7.00
2023-04-17T13:18:34.205Z,6.80
2023-04-17T13:21:00.690Z,6.43
2023-04-17T13:23:27.185Z,6.63
2023-04-17T13:25:53.931Z,6.73
2023-04-17T13:28:20.417Z,6.50
2023-04-17T13:30:46.922Z,6.30
2023-04-17T13:33:13.373Z,6.67
2023-04-17T13:35:39.883Z,6.93
2023-04-17T13:38:06.573Z,6.43
2023-04-17T13:40:33.177Z,7.33
2023-04-17T13:43:00.488Z,7.27
2023-04-17T13:45:27.142Z,6.33
2023-04-17T13:47:53.647Z,6.27
2023-04-17T13:50:20.266Z,6.10
2023-04-17T13:52:46.741Z,5.97
2023-04-17T13:55:14.756Z,5.77
2023-04-17T13:57:41.367Z,6.10
2023-04-17T14:00:08.423Z,6.63
2023-04-17T14:02:35.066Z,5.83
2023-04-17T14:05:02.055Z,5.87
2023-04-17T14:07:30.003Z,6.00
2023-04-17T14:09:56.554Z,6.20
2023-04-17T14:12:23.555Z,5.90
2023-04-17T14:14:50.307Z,5.73
2023-04-17T14:17:16.832Z,5.50
2023-04-17T14:19:43.296Z,5.90
2023-04-17T14:22:09.849Z,5.70
2023-04-17T14:24:36.312Z,5.73
2023-04-17T14:27:03.058Z,5.87
2023-04-17T14:29:29.600Z,5.97
2023-04-17T14:31:56.178Z,5.73
2023-04-17T14:34:22.729Z,5.90
2023-04-17T14:36:49.196Z,5.63
2023-04-17T14:39:15.735Z,6.07
2023-04-17T14:41:42.373Z,5.97
2023-04-17T14:44:08.962Z,6.10
2023-04-17T14:46:35.747Z,5.53
2023-04-17T14:49:02.395Z,5.70
2023-04-17T14:51:30.691Z,6.33
2023-04-17T14:53:57.576Z,6.20
2023-04-17T14:56:24.391Z,5.67
2023-04-17T14:58:51.178Z,6.17
2023-04-17T15:01:17.801Z,5.80
2023-04-17T15:03:47.737Z,5.43
2023-04-17T15:06:15.248Z,5.53
2023-04-17T15:08:41.814Z,5.93
2023-04-17T15:11:08.764Z,6.50
2023-04-17T15:13:35.904Z,6.20
2023-04-17T15:16:02.715Z,6.53
2023-04-17T15:18:29.258Z,6.47
2023-04-17T15:20:56.083Z,6.50
2023-04-17T15:23:22.864Z,6.63
2023-04-17T15:25:49.417Z,6.73
2023-04-17T15:28:16.086Z,7.10
2023-04-17T15:30:42.750Z,6.27
2023-04-17T15:33:10.412Z,6.83
2023-04-17T15:35:37.508Z,7.37
2023-04-17T15:38:05.426Z,7.27
2023-04-17T15:40:31.934Z,7.10
2023-04-17T15:42:58.490Z,7.77
2023-04-17T15:45:26.246Z,7.23
2023-04-17T15:47:53.653Z,6.80
2023-04-17T15:50:21.396Z,7.30
2023-04-17T15:52:48.214Z,7.40
2023-04-17T15:55:15.386Z,6.43
2023-04-17T15:57:43.136Z,7.30
2023-04-17T16:00:10.433Z,7.40
2023-04-17T16:02:37.348Z,7.70
2023-04-17T16:05:04.355Z,6.80
2023-04-17T16:07:31.940Z,7.17
2023-04-17T16:09:58.604Z,7.63
2023-04-17T16:12:25.115Z,7.30
2023-04-17T16:14:51.585Z,7.07
2023-04-17T16:17:18.185Z,6.53
2023-04-17T16:19:44.708Z,6.60
2023-04-17T16:22:11.201Z,6.70
2023-04-17T16:24:37.705Z,6.83
2023-04-17T16:27:04.516Z,6.53
2023-04-17T16:29:30.975Z,7.03
2023-04-17T16:31:57.707Z,6.33
2023-04-17T16:34:24.320Z,6.40
2023-04-17T16:36:50.856Z,6.93
2023-04-17T16:39:17.341Z,6.60
2023-04-17T16:41:43.843Z,6.80
2023-04-17T16:44:10.848Z,6.67
2023-04-17T16:46:52.165Z,5.77
2023-04-17T16:49:24.118Z,6.83
2023-04-17T16:51:50.597Z,7.40
2023-04-17T16:54:18.763Z,6.50
2023-04-17T16:56:46.968Z,6.77
2023-04-17T16:59:13.644Z,7.30
2023-04-17T17:01:40.351Z,6.87
2023-04-17T17:04:06.980Z,7.07
2023-04-17T17:06:33.493Z,7.07
2023-04-17T17:09:00.589Z,6.93
2023-04-17T17:11:27.081Z,6.83
2023-04-17T17:13:53.529Z,7.03
2023-04-17T17:16:21.003Z,7.37
2023-04-17T17:18:48.411Z,7.40
2023-04-17T17:21:15.300Z,6.93
2023-04-17T17:23:41.920Z,7.10
2023-04-17T17:26:09.315Z,7.23
2023-04-17T17:28:35.942Z,7.00
2023-04-17T17:31:04.491Z,8.10
2023-04-17T17:33:32.238Z,8.00
2023-04-17T17:35:59.010Z,8.60
2023-04-17T17:38:28.567Z,8.03
2023-04-17T17:40:56.194Z,7.77
2023-04-17T17:43:23.029Z,7.10
2023-04-17T17:45:49.835Z,7.50
2023-04-17T17:48:18.061Z,7.43
2023-04-17T17:50:44.666Z,7.87
2023-04-17T17:53:11.442Z,7.33
2023-04-17T17:55:38.141Z,9.03
2023-04-17T17:58:09.056Z,9.87
2023-04-17T18:00:35.856Z,8.83
2023-04-17T18:03:02.516Z,8.77
2023-04-17T18:05:29.161Z,8.80
2023-04-17T18:07:55.822Z,7.80
2023-04-17T18:10:22.309Z,8.47
2023-04-17T18:12:49.757Z,8.13
2023-04-17T18:15:16.461Z,7.83
2023-04-17T18:17:42.989Z,7.07
2023-04-17T18:20:10.089Z,8.07
2023-04-17T18:22:38.321Z,7.40
2023-04-17T18:25:06.868Z,7.33
2023-04-17T18:27:36.235Z,7.40
2023-04-17T18:30:07.283Z,7.33
2023-04-17T18:32:34.504Z,7.80
2023-04-17T18:35:01.972Z,8.13
2023-04-17T18:37:28.915Z,8.23
2023-04-17T18:39:55.674Z,7.80
2023-04-17T18:42:22.976Z,8.50
2023-04-17T18:44:49.968Z,7.70
2023-04-17T18:47:16.762Z,8.53
2023-04-17T18:49:43.246Z,8.23
2023-04-17T18:52:09.791Z,7.70
2023-04-17T18:54:36.248Z,7.40
2023-04-17T18:57:02.858Z,7.73
2023-04-17T18:59:30.186Z,7.37
2023-04-17T19:01:56.748Z,7.33
2023-04-17T19:04:23.281Z,6.23
2023-04-17T19:06:49.746Z,7.13
2023-04-17T19:09:16.192Z,7.17
2023-04-17T19:11:42.825Z,6.80
2023-04-17T19:14:09.278Z,6.50
2023-04-17T19:16:35.876Z,6.37
2023-04-17T19:19:02.350Z,6.77
2023-04-17T19:21:31.154Z,6.93
2023-04-17T19:23:57.608Z,6.87
2023-04-17T19:26:24.114Z,7.37
2023-04-17T19:28:50.740Z,7.00
2023-04-17T19:31:17.220Z,6.47
2023-04-17T19:33:43.746Z,6.90
2023-04-17T19:36:10.388Z,6.77
2023-04-17T19:38:36.828Z,6.87
2023-04-17T19:41:17.892Z,6.37
2023-04-17T19:43:49.818Z,7.67
2023-04-17T19:46:16.828Z,7.57
2023-04-17T19:48:45.399Z,7.37
2023-04-17T19:51:12.922Z,7.23
2023-04-17T19:53:41.498Z,7.13
2023-04-17T19:56:09.362Z,7.50
2023-04-17T19:58:37.431Z,6.63
2023-04-17T20:01:04.388Z,6.33
2023-04-17T20:03:32.362Z,7.13
2023-04-17T20:05:59.673Z,6.97
2023-04-17T20:08:26.293Z,6.87
2023-04-17T20:10:52.834Z,7.23
2023-04-17T20:13:19.284Z,6.37
2023-04-17T20:15:45.843Z,6.70
2023-04-17T20:18:12.438Z,6.13
2023-04-17T20:20:39.209Z,6.50
2023-04-17T20:23:05.804Z,7.67
2023-04-17T20:25:32.279Z,7.73
2023-04-17T20:27:58.747Z,8.17
2023-04-17T20:30:25.547Z,6.83
2023-04-17T20:32:52.163Z,7.13
2023-04-17T20:35:23.650Z,6.30
2023-04-17T20:37:51.712Z,6.90
2023-04-17T20:40:18.777Z,7.00
2023-04-17T20:42:46.403Z,6.53
2023-04-17T20:45:13.076Z,7.17
2023-04-17T20:47:49.340Z,7.10
2023-04-17T20:50:22.484Z,7.17
2023-04-17T20:52:49.100Z,7.33
2023-04-17T20:55:18.294Z,6.73
2023-04-17T20:57:45.019Z,6.50
2023-04-17T21:00:12.194Z,6.97
2023-04-17T21:02:38.908Z,7.27
2023-04-17T21:05:06.827Z,6.70
2023-04-17T21:07:33.268Z,7.40
2023-04-17T21:09:59.735Z,7.27
2023-04-17T21:12:26.155Z,8.00
2023-04-17T21:14:52.645Z,7.63
2023-04-17T21:17:19.889Z,7.50
2023-04-17T21:19:47.619Z,6.87
2023-04-17T21:22:14.080Z,8.07
2023-04-17T21:24:40.649Z,7.20
2023-04-17T21:27:07.163Z,7.70
2023-04-17T21:29:33.651Z,7.60
2023-04-17T21:32:00.406Z,6.93
2023-04-17T21:34:26.954Z,7.70
2023-04-17T21:36:54.036Z,7.00
2023-04-17T21:39:21.080Z,7.73
2023-04-17T21:41:47.585Z,7.90
2023-04-17T21:44:15.174Z,7.40
2023-04-17T21:46:44.414Z,7.13
2023-04-17T21:49:11.166Z,8.03
2023-04-17T21:51:37.682Z,7.73
2023-04-17T21:54:04.930Z,7.60
2023-04-17T21:56:31.693Z,7.23
2023-04-17T21:58:58.256Z,7.77
2023-04-17T22:01:24.964Z,8.47
2023-04-17T22:03:51.465Z,7.83
2023-04-17T22:06:18.132Z,8.77
2023-04-17T22:08:44.658Z,8.17
2023-04-17T22:11:11.122Z,8.63
2023-04-17T22:13:37.583Z,8.50
2023-04-17T22:16:04.237Z,8.83
2023-04-17T22:18:30.695Z,8.83
2023-04-17T22:20:57.235Z,8.70
2023-04-17T22:23:23.735Z,8.17
2023-04-17T22:25:50.452Z,8.70
2023-04-17T22:28:17.115Z,8.87
2023-04-17T22:30:43.632Z,8.87
2023-04-17T22:33:10.128Z,8.10
2023-04-17T22:35:36.751Z,9.07
2023-04-17T22:38:03.191Z,10.10
2023-04-17T22:40:30.179Z,8.90
2023-04-17T22:42:56.740Z,8.83
2023-04-17T22:45:23.215Z,9.37
2023-04-17T22:47:49.710Z,8.87
2023-04-17T22:50:17.731Z,8.83
2023-04-17T22:52:44.276Z,9.50
2023-04-17T22:55:11.324Z,8.47
2023-04-17T22:57:37.763Z,9.50
2023-04-17T23:00:05.165Z,9.10
2023-04-17T23:02:32.251Z,9.27
2023-04-17T23:04:59.514Z,8.87
2023-04-17T23:07:26.236Z,9.97
2023-04-17T23:09:52.740Z,8.83
2023-04-17T23:12:19.770Z,9.13
2023-04-17T23:14:48.517Z,9.07
2023-04-17T23:17:15.166Z,9.47
2023-04-17T23:19:41.655Z,9.53
2023-04-17T23:22:09.428Z,8.73
2023-04-17T23:24:36.090Z,9.93
2023-04-17T23:27:03.001Z,9.53
2023-04-17T23:29:30.180Z,9.67
2023-04-17T23:31:56.951Z,9.57
2023-04-17T23:34:23.397Z,9.83
2023-04-17T23:36:49.887Z,9.33
2023-04-17T23:39:16.632Z,9.30
2023-04-17T23:41:43.215Z,9.70
2023-04-17T23:44:10.152Z,9.33
2023-04-17T23:46:37.031Z,9.33
2023-04-17T23:49:03.809Z,8.80
2023-04-17T23:51:30.450Z,8.70
2023-04-17T23:53:58.982Z,8.47
2023-04-17T23:56:26.040Z,8.47
2023-04-17T23:58:52.624Z,8.80
